sensor_id;sensor_type;location;lat;lon;timestamp;P1;durP1;ratioP1;P2;durP2;ratioP2
44662;SDS011;30381;52.754;18.258;2023-02-28T07:14:53;61.50;;;28.00;;
44662;SDS011;30381;52.754;18.258;2023-02-28T07:17:22;67.30;;;29.90;;
44662;SDS011;30381;52.754;18.258;2023-02-28T07:19:53;62.80;;;30.70;;
44662;SDS011;30381;52.754;18.258;2023-02-28T07:22:21;61.40;;;29.00;;
44662;SDS011;30381;52.754;18.258;2023-02-28T07:24:49;67.90;;;30.90;;
44662;SDS011;30381;52.754;18.258;2023-02-28T07:27:18;61.00;;;29.60;;
44662;SDS011;30381;52.754;18.258;2023-02-28T07:29:50;70.40;;;31.40;;
44662;SDS011;30381;52.754;18.258;2023-02-28T07:32:19;63.90;;;31.90;;
44662;SDS011;30381;52.754;18.258;2023-02-28T07:34:45;86.00;;;48.50;;
44662;SDS011;30381;52.754;18.258;2023-02-28T07:37:12;85.70;;;43.60;;
44662;SDS011;30381;52.754;18.258;2023-02-28T07:39:41;77.00;;;40.10;;
44662;SDS011;30381;52.754;18.258;2023-02-28T07:42:08;85.60;;;41.10;;
44662;SDS011;30381;52.754;18.258;2023-02-28T07:44:38;74.10;;;35.70;;
44662;SDS011;30381;52.754;18.258;2023-02-28T07:47:09;70.10;;;34.20;;
44662;SDS011;30381;52.754;18.258;2023-02-28T07:49:37;60.90;;;27.50;;
44662;SDS011;30381;52.754;18.258;2023-02-28T07:52:05;60.40;;;27.50;;
44662;SDS011;30381;52.754;18.258;2023-02-28T07:54:35;70.20;;;32.90;;
44662;SDS011;30381;52.754;18.258;2023-02-28T07:57:02;72.80;;;32.30;;
44662;SDS011;30381;52.754;18.258;2023-02-28T07:59:30;73.70;;;32.70;;
44662;SDS011;30381;52.754;18.258;2023-02-28T08:01:59;68.30;;;30.90;;
44662;SDS011;30381;52.754;18.258;2023-02-28T08:04:25;77.90;;;31.40;;
44662;SDS011;30381;52.754;18.258;2023-02-28T08:06:52;64.90;;;28.70;;
44662;SDS011;30381;52.754;18.258;2023-02-28T08:09:22;56.10;;;28.10;;
44662;SDS011;30381;52.754;18.258;2023-02-28T08:11:48;57.10;;;26.50;;
44662;SDS011;30381;52.754;18.258;2023-02-28T08:14:14;51.50;;;24.40;;
44662;SDS011;30381;52.754;18.258;2023-02-28T08:16:41;51.50;;;27.20;;
44662;SDS011;30381;52.754;18.258;2023-02-28T08:19:09;49.30;;;27.30;;
44662;SDS011;30381;52.754;18.258;2023-02-28T08:21:39;59.40;;;28.40;;
44662;SDS011;30381;52.754;18.258;2023-02-28T08:24:07;63.00;;;30.50;;
44662;SDS011;30381;52.754;18.258;2023-02-28T08:26:34;74.10;;;31.20;;
44662;SDS011;30381;52.754;18.258;2023-02-28T08:29:00;65.40;;;31.10;;
44662;SDS011;30381;52.754;18.258;2023-02-28T08:31:27;71.30;;;33.90;;
44662;SDS011;30381;52.754;18.258;2023-02-28T08:33:53;72.00;;;33.80;;
44662;SDS011;30381;52.754;18.258;2023-02-28T08:36:22;64.00;;;31.10;;
44662;SDS011;30381;52.754;18.258;2023-02-28T08:38:50;63.00;;;29.70;;
44662;SDS011;30381;52.754;18.258;2023-02-28T08:41:16;63.50;;;31.70;;
44662;SDS011;30381;52.754;18.258;2023-02-28T08:46:08;67.00;;;34.20;;
44662;SDS011;30381;52.754;18.258;2023-02-28T08:48:40;52.40;;;27.30;;
44662;SDS011;30381;52.754;18.258;2023-02-28T08:51:08;57.50;;;28.80;;
44662;SDS011;30381;52.754;18.258;2023-02-28T08:53:38;65.70;;;35.50;;
44662;SDS011;30381;52.754;18.258;2023-02-28T08:56:07;53.20;;;25.60;;
44662;SDS011;30381;52.754;18.258;2023-02-28T08:58:34;51.50;;;24.10;;
44662;SDS011;30381;52.754;18.258;2023-02-28T09:01:06;46.20;;;24.60;;
44662;SDS011;30381;52.754;18.258;2023-02-28T09:03:34;46.90;;;24.80;;
44662;SDS011;30381;52.754;18.258;2023-02-28T09:06:03;53.30;;;24.40;;
44662;SDS011;30381;52.754;18.258;2023-02-28T09:08:30;42.40;;;22.30;;
44662;SDS011;30381;52.754;18.258;2023-02-28T09:10:57;46.40;;;23.30;;
44662;SDS011;30381;52.754;18.258;2023-02-28T09:13:25;50.40;;;22.60;;
44662;SDS011;30381;52.754;18.258;2023-02-28T09:15:56;49.40;;;22.90;;
44662;SDS011;30381;52.754;18.258;2023-02-28T09:18:24;50.10;;;22.80;;
44662;SDS011;30381;52.754;18.258;2023-02-28T09:20:50;44.20;;;20.30;;
44662;SDS011;30381;52.754;18.258;2023-02-28T09:23:24;42.70;;;19.40;;
44662;SDS011;30381;52.754;18.258;2023-02-28T09:26:24;30.40;;;16.60;;
44662;SDS011;30381;52.754;18.258;2023-02-28T09:29:15;38.30;;;18.60;;
44662;SDS011;30381;52.754;18.258;2023-02-28T09:31:51;38.40;;;18.00;;
44662;SDS011;30381;52.754;18.258;2023-02-28T09:34:45;47.80;;;22.00;;
44662;SDS011;30381;52.754;18.258;2023-02-28T09:37:38;46.40;;;21.50;;
44662;SDS011;30381;52.754;18.258;2023-02-28T09:40:05;49.50;;;22.70;;
44662;SDS011;30381;52.754;18.258;2023-02-28T09:42:37;41.30;;;22.20;;
44662;SDS011;30381;52.754;18.258;2023-02-28T09:45:21;43.10;;;22.10;;
44662;SDS011;30381;52.754;18.258;2023-02-28T09:47:52;37.00;;;21.20;;
44662;SDS011;30381;52.754;18.258;2023-02-28T09:50:38;36.40;;;19.40;;
44662;SDS011;30381;52.754;18.258;2023-02-28T09:53:22;42.30;;;22.30;;
44662;SDS011;30381;52.754;18.258;2023-02-28T09:55:58;46.20;;;25.10;;
44662;SDS011;30381;52.754;18.258;2023-02-28T09:58:44;51.10;;;24.40;;
44662;SDS011;30381;52.754;18.258;2023-02-28T10:01:18;60.50;;;31.00;;
44662;SDS011;30381;52.754;18.258;2023-02-28T10:03:56;48.00;;;24.50;;
44662;SDS011;30381;52.754;18.258;2023-02-28T10:06:27;40.80;;;21.20;;
44662;SDS011;30381;52.754;18.258;2023-02-28T10:09:31;44.30;;;24.40;;
44662;SDS011;30381;52.754;18.258;2023-02-28T10:11:57;43.40;;;25.50;;
44662;SDS011;30381;52.754;18.258;2023-02-28T10:14:29;45.50;;;25.90;;
44662;SDS011;30381;52.754;18.258;2023-02-28T10:17:12;44.10;;;25.80;;
44662;SDS011;30381;52.754;18.258;2023-02-28T10:20:01;54.60;;;32.80;;
44662;SDS011;30381;52.754;18.258;2023-02-28T10:22:40;65.50;;;37.50;;
44662;SDS011;30381;52.754;18.258;2023-02-28T10:25:16;67.10;;;42.00;;
44662;SDS011;30381;52.754;18.258;2023-02-28T10:27:52;50.40;;;32.10;;
44662;SDS011;30381;52.754;18.258;2023-02-28T10:30:20;59.40;;;38.20;;
44662;SDS011;30381;52.754;18.258;2023-02-28T10:32:48;65.80;;;41.80;;
44662;SDS011;30381;52.754;18.258;2023-02-28T10:35:20;65.10;;;41.40;;
44662;SDS011;30381;52.754;18.258;2023-02-28T10:37:48;58.60;;;38.40;;
44662;SDS011;30381;52.754;18.258;2023-02-28T10:43:02;76.20;;;41.20;;
44662;SDS011;30381;52.754;18.258;2023-02-28T10:45:31;67.40;;;40.70;;
44662;SDS011;30381;52.754;18.258;2023-02-28T10:48:01;95.50;;;52.10;;
44662;SDS011;30381;52.754;18.258;2023-02-28T11:04:02;49.30;;;29.40;;
44662;SDS011;30381;52.754;18.258;2023-02-28T11:06:30;50.20;;;29.70;;
44662;SDS011;30381;52.754;18.258;2023-02-28T11:08:59;49.80;;;29.10;;
44662;SDS011;30381;52.754;18.258;2023-02-28T11:11:30;65.30;;;33.30;;
44662;SDS011;30381;52.754;18.258;2023-02-28T11:14:07;44.60;;;25.50;;
44662;SDS011;30381;52.754;18.258;2023-02-28T11:17:21;50.80;;;27.70;;
44662;SDS011;30381;52.754;18.258;2023-02-28T11:19:51;109.80;;;48.90;;
44662;SDS011;30381;52.754;18.258;2023-02-28T11:22:24;56.10;;;28.70;;
44662;SDS011;30381;52.754;18.258;2023-02-28T11:24:55;51.10;;;26.80;;
44662;SDS011;30381;52.754;18.258;2023-02-28T11:27:26;44.60;;;23.90;;
44662;SDS011;30381;52.754;18.258;2023-02-28T11:30:59;89.20;;;34.30;;
44662;SDS011;30381;52.754;18.258;2023-02-28T11:35:50;47.50;;;23.90;;
44662;SDS011;30381;52.754;18.258;2023-02-28T11:38:21;49.20;;;26.50;;
44662;SDS011;30381;52.754;18.258;2023-02-28T11:59:02;38.10;;;19.80;;
44662;SDS011;30381;52.754;18.258;2023-02-28T12:01:37;38.90;;;18.00;;
44662;SDS011;30381;52.754;18.258;2023-02-28T12:07:28;33.80;;;16.80;;
44662;SDS011;30381;52.754;18.258;2023-02-28T12:10:20;35.50;;;16.20;;
44662;SDS011;30381;52.754;18.258;2023-02-28T12:27:50;39.80;;;19.40;;
44662;SDS011;30381;52.754;18.258;2023-02-28T12:30:31;36.40;;;18.20;;
44662;SDS011;30381;52.754;18.258;2023-02-28T12:33:08;30.00;;;16.90;;
44662;SDS011;30381;52.754;18.258;2023-02-28T12:38:29;27.50;;;14.70;;
44662;SDS011;30381;52.754;18.258;2023-02-28T12:41:03;26.80;;;14.10;;
44662;SDS011;30381;52.754;18.258;2023-02-28T12:43:55;26.10;;;13.90;;
44662;SDS011;30381;52.754;18.258;2023-02-28T12:46:34;28.30;;;13.50;;
44662;SDS011;30381;52.754;18.258;2023-02-28T12:49:13;24.60;;;12.10;;
44662;SDS011;30381;52.754;18.258;2023-02-28T12:51:48;26.40;;;12.80;;
44662;SDS011;30381;52.754;18.258;2023-02-28T12:54:25;22.40;;;11.00;;
44662;SDS011;30381;52.754;18.258;2023-02-28T12:59:54;24.20;;;12.00;;
44662;SDS011;30381;52.754;18.258;2023-02-28T13:17:12;24.70;;;11.80;;
44662;SDS011;30381;52.754;18.258;2023-02-28T13:22:40;29.60;;;13.70;;
44662;SDS011;30381;52.754;18.258;2023-02-28T13:28:08;25.20;;;12.60;;
44662;SDS011;30381;52.754;18.258;2023-02-28T13:33:31;22.50;;;11.40;;
44662;SDS011;30381;52.754;18.258;2023-02-28T13:38:47;26.80;;;13.00;;
44662;SDS011;30381;52.754;18.258;2023-02-28T13:41:51;20.50;;;10.80;;
44662;SDS011;30381;52.754;18.258;2023-02-28T13:44:25;21.30;;;10.90;;
44662;SDS011;30381;52.754;18.258;2023-02-28T13:49:31;16.50;;;7.30;;
44662;SDS011;30381;52.754;18.258;2023-02-28T14:01:32;15.90;;;7.50;;
44662;SDS011;30381;52.754;18.258;2023-02-28T15:12:39;41.00;;;21.90;;
44662;SDS011;30381;52.754;18.258;2023-02-28T15:46:01;22.50;;;10.50;;
44662;SDS011;30381;52.754;18.258;2023-02-28T16:35:53;54.10;;;17.90;;
44662;SDS011;30381;52.754;18.258;2023-02-28T16:38:27;51.00;;;17.40;;
44662;SDS011;30381;52.754;18.258;2023-02-28T16:40:55;46.60;;;18.00;;
44662;SDS011;30381;52.754;18.258;2023-02-28T18:19:22;50.30;;;21.00;;
44662;SDS011;30381;52.754;18.258;2023-02-28T20:32:45;66.40;;;29.30;;
44662;SDS011;30381;52.754;18.258;2023-02-28T20:35:11;65.80;;;29.40;;
44662;SDS011;30381;52.754;18.258;2023-02-28T20:37:38;76.40;;;31.50;;
44662;SDS011;30381;52.754;18.258;2023-02-28T20:40:30;76.10;;;32.40;;
44662;SDS011;30381;52.754;18.258;2023-02-28T20:42:57;73.30;;;31.50;;
44662;SDS011;30381;52.754;18.258;2023-02-28T20:45:23;76.50;;;33.20;;
44662;SDS011;30381;52.754;18.258;2023-02-28T20:47:52;76.50;;;32.90;;
44662;SDS011;30381;52.754;18.258;2023-02-28T20:50:18;82.80;;;33.90;;
44662;SDS011;30381;52.754;18.258;2023-02-28T20:52:47;96.30;;;39.10;;
44662;SDS011;30381;52.754;18.258;2023-02-28T20:55:17;93.80;;;40.50;;
44662;SDS011;30381;52.754;18.258;2023-02-28T20:57:44;121.30;;;47.20;;
44662;SDS011;30381;52.754;18.258;2023-02-28T21:00:12;107.30;;;46.30;;
44662;SDS011;30381;52.754;18.258;2023-02-28T21:02:47;123.20;;;47.60;;
44662;SDS011;30381;52.754;18.258;2023-02-28T21:05:23;113.40;;;47.20;;
44662;SDS011;30381;52.754;18.258;2023-02-28T21:07:52;116.60;;;46.70;;
44662;SDS011;30381;52.754;18.258;2023-02-28T21:10:21;117.60;;;43.80;;
44662;SDS011;30381;52.754;18.258;2023-02-28T21:13:00;135.10;;;49.50;;
44662;SDS011;30381;52.754;18.258;2023-02-28T21:15:40;128.50;;;48.00;;
44662;SDS011;30381;52.754;18.258;2023-02-28T21:18:08;120.20;;;46.50;;
44662;SDS011;30381;52.754;18.258;2023-02-28T21:20:36;108.40;;;44.90;;
44662;SDS011;30381;52.754;18.258;2023-02-28T21:23:02;102.80;;;40.50;;
44662;SDS011;30381;52.754;18.258;2023-02-28T21:25:30;96.80;;;40.50;;
44662;SDS011;30381;52.754;18.258;2023-02-28T21:27:58;97.30;;;38.70;;
44662;SDS011;30381;52.754;18.258;2023-02-28T21:30:24;100.20;;;39.60;;
44662;SDS011;30381;52.754;18.258;2023-02-28T21:32:53;91.10;;;37.20;;
44662;SDS011;30381;52.754;18.258;2023-02-28T21:35:48;101.80;;;37.90;;
44662;SDS011;30381;52.754;18.258;2023-02-28T21:38:24;103.80;;;40.80;;
44662;SDS011;30381;52.754;18.258;2023-02-28T21:40:51;201.80;;;74.30;;
44662;SDS011;30381;52.754;18.258;2023-02-28T21:46:51;177.60;;;70.30;;
44662;SDS011;30381;52.754;18.258;2023-02-28T21:49:25;198.50;;;72.40;;
44662;SDS011;30381;52.754;18.258;2023-02-28T21:52:39;165.40;;;64.70;;
44662;SDS011;30381;52.754;18.258;2023-02-28T21:55:15;154.60;;;62.70;;
44662;SDS011;30381;52.754;18.258;2023-02-28T21:58:36;134.80;;;52.00;;
44662;SDS011;30381;52.754;18.258;2023-02-28T22:02:05;123.40;;;47.40;;
44662;SDS011;30381;52.754;18.258;2023-02-28T22:07:49;124.00;;;46.70;;
44662;SDS011;30381;52.754;18.258;2023-02-28T22:10:53;128.40;;;48.80;;
44662;SDS011;30381;52.754;18.258;2023-02-28T22:13:36;119.00;;;45.70;;
44662;SDS011;30381;52.754;18.258;2023-02-28T22:16:13;115.50;;;47.30;;
44662;SDS011;30381;52.754;18.258;2023-02-28T22:18:42;127.10;;;48.20;;
44662;SDS011;30381;52.754;18.258;2023-02-28T22:21:30;108.80;;;44.60;;
44662;SDS011;30381;52.754;18.258;2023-02-28T22:23:57;106.20;;;40.30;;
44662;SDS011;30381;52.754;18.258;2023-02-28T22:26:33;91.70;;;36.00;;
44662;SDS011;30381;52.754;18.258;2023-02-28T22:29:00;89.50;;;36.30;;
44662;SDS011;30381;52.754;18.258;2023-02-28T22:31:49;85.10;;;34.10;;
44662;SDS011;30381;52.754;18.258;2023-02-28T22:34:29;85.90;;;35.80;;
44662;SDS011;30381;52.754;18.258;2023-02-28T22:36:55;87.20;;;35.40;;
44662;SDS011;30381;52.754;18.258;2023-02-28T22:39:22;88.10;;;37.20;;
44662;SDS011;30381;52.754;18.258;2023-02-28T22:41:49;80.80;;;34.30;;
44662;SDS011;30381;52.754;18.258;2023-02-28T22:44:18;76.50;;;30.10;;
44662;SDS011;30381;52.754;18.258;2023-02-28T22:46:55;75.80;;;32.00;;
44662;SDS011;30381;52.754;18.258;2023-02-28T22:49:24;68.50;;;28.30;;
44662;SDS011;30381;52.754;18.258;2023-02-28T22:51:51;72.60;;;30.00;;
44662;SDS011;30381;52.754;18.258;2023-02-28T22:54:17;68.90;;;28.70;;
44662;SDS011;30381;52.754;18.258;2023-02-28T22:56:44;74.90;;;31.60;;
44662;SDS011;30381;52.754;18.258;2023-02-28T22:59:21;71.20;;;29.70;;
44662;SDS011;30381;52.754;18.258;2023-02-28T23:01:50;71.80;;;28.80;;
44662;SDS011;30381;52.754;18.258;2023-02-28T23:04:21;69.00;;;29.80;;
44662;SDS011;30381;52.754;18.258;2023-02-28T23:06:50;62.80;;;25.80;;
44662;SDS011;30381;52.754;18.258;2023-02-28T23:09:17;54.10;;;21.00;;
44662;SDS011;30381;52.754;18.258;2023-02-28T23:11:46;54.90;;;20.30;;
44662;SDS011;30381;52.754;18.258;2023-02-28T23:14:15;46.60;;;20.60;;
44662;SDS011;30381;52.754;18.258;2023-02-28T23:16:44;50.70;;;21.00;;
44662;SDS011;30381;52.754;18.258;2023-02-28T23:19:13;48.80;;;20.30;;
44662;SDS011;30381;52.754;18.258;2023-02-28T23:21:47;49.10;;;21.50;;
44662;SDS011;30381;52.754;18.258;2023-02-28T23:24:14;59.90;;;23.40;;
44662;SDS011;30381;52.754;18.258;2023-02-28T23:26:43;57.50;;;23.10;;
44662;SDS011;30381;52.754;18.258;2023-02-28T23:29:14;64.30;;;25.20;;
44662;SDS011;30381;52.754;18.258;2023-02-28T23:31:42;67.20;;;26.20;;
44662;SDS011;30381;52.754;18.258;2023-02-28T23:34:09;68.50;;;26.00;;
44662;SDS011;30381;52.754;18.258;2023-02-28T23:36:37;59.60;;;23.60;;
44662;SDS011;30381;52.754;18.258;2023-02-28T23:39:03;51.10;;;21.00;;
44662;SDS011;30381;52.754;18.258;2023-02-28T23:41:31;54.80;;;21.50;;
44662;SDS011;30381;52.754;18.258;2023-02-28T23:43:57;52.70;;;21.00;;
44662;SDS011;30381;52.754;18.258;2023-02-28T23:46:23;54.30;;;21.20;;
44662;SDS011;30381;52.754;18.258;2023-02-28T23:48:49;54.60;;;21.80;;
44662;SDS011;30381;52.754;18.258;2023-02-28T23:51:17;53.30;;;21.60;;
44662;SDS011;30381;52.754;18.258;2023-02-28T23:53:45;51.80;;;20.80;;
44662;SDS011;30381;52.754;18.258;2023-02-28T23:56:14;48.00;;;21.30;;
44662;SDS011;30381;52.754;18.258;2023-02-28T23:58:42;48.60;;;20.20;;
